LFRKLFRN

Guest
Details From LFRK - Caen Carpiquet
To LFRN - Rennes St Jacques
Flight Number -
Tags generated
Created
Modified
Stats Distance 84 nm / 155 km
Max Altitude 0 ft / 0 m
Waypoints 3
Social Downloads 2
Likes 0
Share VATSIM

Download

Looking for another format? Having issues loading an existing format? Contact us
Advertisement - Login to hide

Notes

Basic altitude profile: - Ascent Rate: 2500ft/min - Ascent Speed: 250kts - Cruise Altitude: 35000ft - Cruise Speed: 420kts - Descent Rate: 1500ft/min - Descent Speed: 250kts

Route

LFRK CAN LFRN

ID Type Via Altitude Latitude Longitude Leg Dist Tot Dist Heading (true) Name
O LFRK APT - 0 ft / 0 m 49.17512˚ -0.45194˚ - 0 nm - Caen Carpiquet
CAN VOR - 0 ft / 0 m 49.17319˚ -0.45528˚ 0 nm 0 nm 229° / 229° CAEN CARPIQUET VOR
O LFRN APT - 0 ft / 0 m 48.06941˚ -1.73459˚ 83 nm 83 nm 218° / 217° Rennes St Jacques

Altitude Profile

Advertisement - Login to hide

LFRK

Details ICAO LFRK (CFR)
Name Caen Carpiquet
Region France
Timezone Europe/Paris (UTC+1.0)
Stats Elevation 256 ft / 78 m (AMSL)
Location 49.175122° -0.451941°
Runways 2
Magnetic Variation 0.320° W

METAR

LFRK 170800Z AUTO 25007KT 9999 BKN032 03/02 Q1026 NOSIG

Decode

TAF

Not found

Departure Runways

ID Width Length Bearing (true) Bearing (mag) Surface Threshold Offset Overrun Length
06 98 ft / 30 m 3,880 ft / 1,183 m 51.68° 52.00° Asphalt 0 ft / 0 m 0 ft / 0 m
13 148 ft / 45 m 6,215 ft / 1,894 m 125.34° 125.66° Asphalt 984 ft / 300 m 0 ft / 0 m
24 98 ft / 30 m 3,880 ft / 1,183 m 231.69° 232.01° Asphalt 0 ft / 0 m 0 ft / 0 m
31 148 ft / 45 m 6,215 ft / 1,894 m 305.36° 305.68° Asphalt 0 ft / 0 m 0 ft / 0 m

LFRN

Details ICAO LFRN (RNS)
Name Rennes St Jacques
Region France
Timezone Europe/Paris (UTC+1.0)
Stats Elevation 124 ft / 38 m (AMSL)
Location 48.069410° -1.734587°
Runways 2
Magnetic Variation 0.632° W

METAR

LFRN 170800Z AUTO 26005KT CAVOK 06/06 Q1027 TEMPO RA BKN008

Decode

TAF

TAF LFRN 170500Z 1706/1806 VRB03KT 9999 BKN025 TEMPO 1706/1711 5000 RA BKN015 PROB30 TEMPO 1706/1711 BKN008 BECMG 1707/1710 22005KT PROB30 TEMPO 1711/1714 5000 SHRA BECMG 1718/1721 21010KT 5000 RA BKN015 TEMPO 1722/1806 2000 RADZ BKN002 BECMG 1803/1806 30010KT

Decode

Destination Runways

ID Width Length Bearing (true) Bearing (mag) Surface Threshold Offset Overrun Length
10 148 ft / 45 m 6,895 ft / 2,102 m 100.76° 101.39° Asphalt 230 ft / 70 m 0 ft / 0 m
14 98 ft / 30 m 2,785 ft / 849 m 142.19° 142.82° Asphalt 0 ft / 0 m 0 ft / 0 m
28 148 ft / 45 m 6,895 ft / 2,102 m 280.78° 281.41° Asphalt 0 ft / 0 m 0 ft / 0 m
32 98 ft / 30 m 2,785 ft / 849 m 322.20° 322.83° Asphalt 0 ft / 0 m 0 ft / 0 m

Approach Navaids

Runway Type Ident Frequency Range Bearing (true) Bearing (mag) Slope Elevation
28 Localiser RS 110.10 MHz 18 nm / 33 km 280.72° 281.35° - 124 ft / 38 m (AMSL)
28 Glidescope RS 110.10 MHz 10 nm / 19 km 280.77° 281.40° 3.00° 124 ft / 38 m (AMSL)
28 DME RS 110.10 MHz 18 nm / 33 km - - - 174 ft / 53 m (AMSL)

Popular Alternatives